DAL1138 KDEN-KSLC
Flight info
| Callsign | DAL1138 |
|---|---|
| Flight time | 1h 5m |
| Altitude | 36000 |
| Route | ZIMMR4 CHNGY SPANE8 |
| Aircraft | A321/M-SDE3FGHIRWY/LB1 |
Departure
| Time | 2026-05-04 20:44 |
|---|---|
| Airport | Denver International Airport (KDEN) |
Arrival
| Time | 2026-05-04 21:50 |
|---|---|
| Airport | Salt Lake City International Airport (KSLC) |
| Time | Latitude | Longitude | Altitude | Speed | Heading |
|---|---|---|---|---|---|
| 2026-05-04 20:19 | 39.85450 | -104.67068 | 5382 ft | 0 kts | 180° |
| 2026-05-04 20:34 | 39.85453 | -104.67068 | 5383 ft | 3 kts | 181° |
| 2026-05-04 20:35 | 39.85478 | -104.67063 | 5382 ft | 4 kts | 212° |
| 2026-05-04 20:35 | 39.85495 | -104.67039 | 5380 ft | 4 kts | 250° |
| 2026-05-04 20:35 | 39.85499 | -104.67013 | 5378 ft | 0 kts | 269° |
| 2026-05-04 20:38 | 39.85509 | -104.67071 | 5382 ft | 16 kts | 287° |
| 2026-05-04 20:38 | 39.85527 | -104.67231 | 5383 ft | 18 kts | 270° |
| 2026-05-04 20:38 | 39.85527 | -104.67384 | 5383 ft | 16 kts | 270° |
| 2026-05-04 20:38 | 39.85529 | -104.67524 | 5383 ft | 15 kts | 270° |
| 2026-05-04 20:39 | 39.85528 | -104.67662 | 5383 ft | 15 kts | 268° |
| 2026-05-04 20:39 | 39.85527 | -104.67793 | 5383 ft | 14 kts | 271° |
| 2026-05-04 20:39 | 39.85529 | -104.67912 | 5383 ft | 12 kts | 271° |
| 2026-05-04 20:39 | 39.85530 | -104.68022 | 5383 ft | 14 kts | 270° |
| 2026-05-04 20:40 | 39.85528 | -104.68158 | 5383 ft | 14 kts | 259° |
| 2026-05-04 20:40 | 39.85450 | -104.68201 | 5383 ft | 12 kts | 181° |
| 2026-05-04 20:40 | 39.85370 | -104.68201 | 5383 ft | 11 kts | 180° |
| 2026-05-04 20:40 | 39.85272 | -104.68203 | 5383 ft | 21 kts | 185° |
| 2026-05-04 20:41 | 39.85202 | -104.68350 | 5380 ft | 20 kts | 250° |
| 2026-05-04 20:41 | 39.85109 | -104.68406 | 5377 ft | 15 kts | 178° |
| 2026-05-04 20:41 | 39.85002 | -104.68406 | 5377 ft | 15 kts | 181° |
| 2026-05-04 20:41 | 39.84882 | -104.68408 | 5373 ft | 18 kts | 180° |
| 2026-05-04 20:42 | 39.84754 | -104.68409 | 5368 ft | 19 kts | 180° |
| 2026-05-04 20:42 | 39.84625 | -104.68412 | 5368 ft | 18 kts | 181° |
| 2026-05-04 20:42 | 39.84498 | -104.68413 | 5364 ft | 18 kts | 180° |
| 2026-05-04 20:42 | 39.84371 | -104.68415 | 5364 ft | 18 kts | 180° |
| 2026-05-04 20:43 | 39.84247 | -104.68416 | 5364 ft | 17 kts | 180° |
| 2026-05-04 20:43 | 39.84130 | -104.68417 | 5364 ft | 16 kts | 180° |
| 2026-05-04 20:43 | 39.84065 | -104.68472 | 5364 ft | 10 kts | 265° |
| 2026-05-04 20:43 | 39.84066 | -104.68577 | 5364 ft | 17 kts | 271° |
| 2026-05-04 20:44 | 39.84068 | -104.69049 | 5364 ft | 89 kts | 269° |
| 2026-05-04 20:44 | 39.84072 | -104.70136 | 5363 ft | 148 kts | 271° |
| 2026-05-04 20:44 | 39.84108 | -104.71651 | 5573 ft | 180 kts | 271° |
| 2026-05-04 20:44 | 39.84236 | -104.73303 | 6343 ft | 184 kts | 282° |
| 2026-05-04 20:45 | 39.84814 | -104.74778 | 7030 ft | 185 kts | 304° |
| 2026-05-04 20:45 | 39.85563 | -104.76170 | 7394 ft | 193 kts | 305° |
| 2026-05-04 20:45 | 39.86358 | -104.77647 | 7513 ft | 207 kts | 304° |
| 2026-05-04 20:45 | 39.87219 | -104.79247 | 7630 ft | 225 kts | 304° |
| 2026-05-04 20:46 | 39.88166 | -104.81011 | 7736 ft | 249 kts | 304° |
| 2026-05-04 20:46 | 39.89200 | -104.82944 | 7947 ft | 271 kts | 304° |
| 2026-05-04 20:46 | 39.90298 | -104.84998 | 8410 ft | 280 kts | 304° |
| 2026-05-04 20:46 | 39.91419 | -104.87099 | 9068 ft | 284 kts | 304° |
| 2026-05-04 20:47 | 39.92551 | -104.89230 | 9705 ft | 289 kts | 302° |
| 2026-05-04 20:47 | 39.93261 | -104.91684 | 9931 ft | 289 kts | 274° |
| 2026-05-04 20:47 | 39.93334 | -104.94278 | 10525 ft | 293 kts | 271° |
| 2026-05-04 20:47 | 39.93387 | -104.96980 | 11183 ft | 296 kts | 271° |
| 2026-05-04 20:48 | 39.93439 | -104.99629 | 11881 ft | 297 kts | 272° |
| 2026-05-04 20:48 | 39.93497 | -105.02346 | 12776 ft | 296 kts | 272° |
| 2026-05-04 20:48 | 39.93558 | -105.05046 | 13444 ft | 300 kts | 272° |
| 2026-05-04 20:48 | 39.93619 | -105.07767 | 14107 ft | 301 kts | 272° |
| 2026-05-04 20:49 | 39.93679 | -105.10503 | 14745 ft | 303 kts | 271° |
| 2026-05-04 20:49 | 39.93738 | -105.13256 | 15360 ft | 306 kts | 271° |
| 2026-05-04 20:49 | 39.93795 | -105.16043 | 15993 ft | 308 kts | 271° |
| 2026-05-04 20:49 | 39.93853 | -105.18845 | 16614 ft | 311 kts | 271° |
| 2026-05-04 20:50 | 39.93916 | -105.21678 | 17253 ft | 314 kts | 271° |
| 2026-05-04 20:50 | 39.94039 | -105.24525 | 17859 ft | 316 kts | 274° |
| 2026-05-04 20:50 | 39.94210 | -105.27376 | 18441 ft | 316 kts | 270° |
| 2026-05-04 20:50 | 39.94352 | -105.30236 | 18967 ft | 316 kts | 273° |
| 2026-05-04 20:51 | 39.94568 | -105.33105 | 19459 ft | 321 kts | 276° |
| 2026-05-04 20:51 | 39.94852 | -105.36007 | 19969 ft | 324 kts | 276° |
| 2026-05-04 20:51 | 39.95148 | -105.38932 | 20466 ft | 327 kts | 276° |
| 2026-05-04 20:51 | 39.95437 | -105.41914 | 20711 ft | 339 kts | 275° |
| 2026-05-04 20:52 | 39.95716 | -105.45021 | 20829 ft | 353 kts | 275° |
| 2026-05-04 20:52 | 39.95986 | -105.48264 | 21020 ft | 364 kts | 274° |
| 2026-05-04 20:52 | 39.96247 | -105.51565 | 21435 ft | 369 kts | 274° |
| 2026-05-04 20:52 | 39.96504 | -105.54903 | 21894 ft | 372 kts | 274° |
| 2026-05-04 20:53 | 39.96761 | -105.58273 | 22381 ft | 374 kts | 274° |
| 2026-05-04 20:53 | 39.97016 | -105.61650 | 22869 ft | 376 kts | 274° |
| 2026-05-04 20:53 | 39.97270 | -105.65051 | 23363 ft | 378 kts | 274° |
| 2026-05-04 20:53 | 39.97509 | -105.68477 | 23692 ft | 382 kts | 274° |
| 2026-05-04 20:54 | 39.97706 | -105.71954 | 23989 ft | 386 kts | 274° |
| 2026-05-04 20:54 | 39.97874 | -105.75450 | 24383 ft | 388 kts | 273° |
| 2026-05-04 20:54 | 39.98033 | -105.78970 | 24821 ft | 389 kts | 273° |
| 2026-05-04 20:54 | 39.98195 | -105.82489 | 25248 ft | 389 kts | 273° |
| 2026-05-04 20:55 | 39.98360 | -105.86007 | 25667 ft | 389 kts | 273° |
| 2026-05-04 20:55 | 39.98527 | -105.89543 | 26075 ft | 390 kts | 273° |
| 2026-05-04 20:55 | 39.98698 | -105.93120 | 26487 ft | 391 kts | 274° |
| 2026-05-04 20:55 | 39.98871 | -105.96650 | 26892 ft | 391 kts | 274° |
| 2026-05-04 20:56 | 39.99046 | -106.00193 | 27283 ft | 391 kts | 274° |
| 2026-05-04 20:56 | 39.99219 | -106.03733 | 27722 ft | 391 kts | 274° |
| 2026-05-04 20:56 | 39.99391 | -106.07276 | 28154 ft | 391 kts | 274° |
| 2026-05-04 20:56 | 39.99559 | -106.10812 | 28551 ft | 391 kts | 274° |
| 2026-05-04 20:57 | 39.99725 | -106.14359 | 28889 ft | 393 kts | 273° |
| 2026-05-04 20:57 | 39.99892 | -106.17930 | 29158 ft | 396 kts | 273° |
| 2026-05-04 20:57 | 40.00062 | -106.21524 | 29453 ft | 398 kts | 273° |
| 2026-05-04 20:57 | 40.00231 | -106.25126 | 29792 ft | 399 kts | 273° |
| 2026-05-04 20:58 | 40.00400 | -106.28744 | 30080 ft | 400 kts | 273° |
| 2026-05-04 20:58 | 40.00567 | -106.32361 | 30382 ft | 400 kts | 273° |
| 2026-05-04 20:58 | 40.00731 | -106.35981 | 30705 ft | 400 kts | 273° |
| 2026-05-04 20:58 | 40.00892 | -106.39598 | 31091 ft | 398 kts | 273° |
| 2026-05-04 20:59 | 40.01048 | -106.43187 | 31529 ft | 395 kts | 273° |
| 2026-05-04 20:59 | 40.01204 | -106.46748 | 31995 ft | 391 kts | 272° |
| 2026-05-04 20:59 | 40.01360 | -106.50273 | 32488 ft | 386 kts | 272° |
| 2026-05-04 20:59 | 40.01516 | -106.53751 | 32945 ft | 383 kts | 272° |
| 2026-05-04 21:00 | 40.01669 | -106.57197 | 33419 ft | 379 kts | 272° |
| 2026-05-04 21:00 | 40.01819 | -106.60604 | 33886 ft | 374 kts | 272° |
| 2026-05-04 21:00 | 40.01964 | -106.63981 | 34257 ft | 371 kts | 272° |
| 2026-05-04 21:00 | 40.02105 | -106.67332 | 34614 ft | 369 kts | 272° |
| 2026-05-04 21:01 | 40.02245 | -106.70669 | 34936 ft | 367 kts | 271° |
| 2026-05-04 21:01 | 40.02384 | -106.73981 | 35268 ft | 365 kts | 271° |
| 2026-05-04 21:01 | 40.02523 | -106.77269 | 35611 ft | 363 kts | 271° |
| 2026-05-04 21:01 | 40.02661 | -106.80551 | 35790 ft | 362 kts | 271° |
| 2026-05-04 21:02 | 40.02929 | -106.87030 | 35820 ft | 355 kts | 271° |
| 2026-05-04 21:02 | 40.03189 | -106.93456 | 35824 ft | 354 kts | 271° |
| 2026-05-04 21:03 | 40.03443 | -106.99910 | 35826 ft | 354 kts | 271° |
| 2026-05-04 21:03 | 40.03697 | -107.06277 | 35826 ft | 353 kts | 271° |
| 2026-05-04 21:04 | 40.03944 | -107.12705 | 35837 ft | 352 kts | 271° |
| 2026-05-04 21:04 | 40.04184 | -107.19092 | 35866 ft | 352 kts | 271° |
| 2026-05-04 21:05 | 40.04424 | -107.25478 | 35896 ft | 353 kts | 271° |
| 2026-05-04 21:05 | 40.04668 | -107.31887 | 35855 ft | 355 kts | 271° |
| 2026-05-04 21:06 | 40.04901 | -107.38335 | 35860 ft | 357 kts | 271° |
| 2026-05-04 21:06 | 40.05141 | -107.44820 | 35848 ft | 358 kts | 271° |
| 2026-05-04 21:07 | 40.05375 | -107.51313 | 35867 ft | 359 kts | 270° |
| 2026-05-04 21:07 | 40.05601 | -107.57824 | 35874 ft | 359 kts | 270° |
| 2026-05-04 21:08 | 40.05821 | -107.64326 | 35894 ft | 359 kts | 270° |
| 2026-05-04 21:08 | 40.06039 | -107.70842 | 35887 ft | 359 kts | 270° |
| 2026-05-04 21:09 | 40.06255 | -107.77356 | 35874 ft | 359 kts | 270° |
| 2026-05-04 21:09 | 40.06470 | -107.83878 | 35959 ft | 360 kts | 270° |
| 2026-05-04 21:10 | 40.06647 | -107.89354 | 35966 ft | 361 kts | 270° |
| 2026-05-04 21:10 | 40.06867 | -107.95894 | 35970 ft | 361 kts | 271° |
| 2026-05-04 21:11 | 40.07179 | -108.02435 | 35968 ft | 361 kts | 271° |
| 2026-05-04 21:11 | 40.07508 | -108.08975 | 35953 ft | 361 kts | 271° |
| 2026-05-04 21:12 | 40.07810 | -108.15518 | 35937 ft | 361 kts | 271° |
| 2026-05-04 21:12 | 40.08078 | -108.22054 | 35881 ft | 360 kts | 271° |
| 2026-05-04 21:13 | 40.08352 | -108.28591 | 35879 ft | 361 kts | 271° |
| 2026-05-04 21:13 | 40.08649 | -108.35152 | 35906 ft | 362 kts | 271° |
| 2026-05-04 21:14 | 40.08944 | -108.41725 | 35879 ft | 364 kts | 271° |
| 2026-05-04 21:14 | 40.09220 | -108.48345 | 35848 ft | 365 kts | 271° |
| 2026-05-04 21:15 | 40.09486 | -108.54979 | 35862 ft | 367 kts | 271° |
| 2026-05-04 21:15 | 40.09761 | -108.61637 | 35847 ft | 367 kts | 271° |
| 2026-05-04 21:16 | 40.10033 | -108.68351 | 35851 ft | 368 kts | 270° |
| 2026-05-04 21:16 | 40.10294 | -108.75022 | 35836 ft | 368 kts | 270° |
| 2026-05-04 21:17 | 40.10551 | -108.81704 | 35834 ft | 368 kts | 270° |
| 2026-05-04 21:17 | 40.10806 | -108.88379 | 35811 ft | 369 kts | 270° |
| 2026-05-04 21:18 | 40.11066 | -108.95060 | 35824 ft | 369 kts | 270° |
| 2026-05-04 21:18 | 40.11322 | -109.01760 | 35795 ft | 369 kts | 270° |
| 2026-05-04 21:19 | 40.11572 | -109.08438 | 35796 ft | 368 kts | 270° |
| 2026-05-04 21:19 | 40.11817 | -109.15122 | 35763 ft | 368 kts | 270° |
| 2026-05-04 21:20 | 40.12054 | -109.21814 | 35765 ft | 369 kts | 270° |
| 2026-05-04 21:20 | 40.12278 | -109.28507 | 35744 ft | 369 kts | 270° |
| 2026-05-04 21:21 | 40.12507 | -109.35201 | 35758 ft | 369 kts | 270° |
| 2026-05-04 21:21 | 40.12742 | -109.41887 | 35772 ft | 369 kts | 270° |
| 2026-05-04 21:22 | 40.12968 | -109.48591 | 35767 ft | 369 kts | 270° |
| 2026-05-04 21:22 | 40.13186 | -109.55288 | 35756 ft | 370 kts | 270° |
| 2026-05-04 21:23 | 40.13406 | -109.62018 | 35749 ft | 370 kts | 270° |
| 2026-05-04 21:23 | 40.13623 | -109.68784 | 35737 ft | 370 kts | 270° |
| 2026-05-04 21:24 | 40.13832 | -109.75512 | 35717 ft | 371 kts | 270° |
| 2026-05-04 21:24 | 40.14036 | -109.82244 | 35720 ft | 371 kts | 270° |
| 2026-05-04 21:25 | 40.14237 | -109.88973 | 35717 ft | 371 kts | 270° |
| 2026-05-04 21:25 | 40.14437 | -109.95700 | 35728 ft | 371 kts | 270° |
| 2026-05-04 21:26 | 40.14626 | -110.02438 | 35725 ft | 371 kts | 269° |
| 2026-05-04 21:26 | 40.14808 | -110.09174 | 35733 ft | 371 kts | 270° |
| 2026-05-04 21:27 | 40.14946 | -110.15915 | 35717 ft | 371 kts | 268° |
| 2026-05-04 21:27 | 40.14892 | -110.22662 | 35739 ft | 371 kts | 267° |
| 2026-05-04 21:28 | 40.14793 | -110.29418 | 35741 ft | 372 kts | 267° |
| 2026-05-04 21:28 | 40.14713 | -110.36182 | 35761 ft | 373 kts | 267° |
| 2026-05-04 21:29 | 40.14657 | -110.42951 | 35762 ft | 372 kts | 268° |
| 2026-05-04 21:29 | 40.14631 | -110.46352 | 35137 ft | 375 kts | 268° |
| 2026-05-04 21:29 | 40.14601 | -110.49752 | 34652 ft | 372 kts | 268° |
| 2026-05-04 21:30 | 40.14567 | -110.53110 | 34187 ft | 368 kts | 268° |
| 2026-05-04 21:30 | 40.14532 | -110.56443 | 33701 ft | 366 kts | 268° |
| 2026-05-04 21:30 | 40.14495 | -110.59751 | 33196 ft | 362 kts | 268° |
| 2026-05-04 21:30 | 40.14456 | -110.63030 | 32758 ft | 358 kts | 268° |
| 2026-05-04 21:31 | 40.14376 | -110.69512 | 31867 ft | 352 kts | 268° |
| 2026-05-04 21:31 | 40.14339 | -110.72664 | 31439 ft | 351 kts | 268° |
| 2026-05-04 21:31 | 40.14301 | -110.75884 | 31002 ft | 350 kts | 268° |
| 2026-05-04 21:32 | 40.14263 | -110.79069 | 30569 ft | 350 kts | 268° |
| 2026-05-04 21:32 | 40.14224 | -110.82245 | 30137 ft | 351 kts | 267° |
| 2026-05-04 21:32 | 40.14184 | -110.85451 | 29676 ft | 352 kts | 267° |
| 2026-05-04 21:32 | 40.14139 | -110.88647 | 29224 ft | 352 kts | 267° |
| 2026-05-04 21:33 | 40.14090 | -110.91837 | 28792 ft | 352 kts | 267° |
| 2026-05-04 21:33 | 40.14041 | -110.95027 | 28364 ft | 351 kts | 267° |
| 2026-05-04 21:33 | 40.13998 | -110.98215 | 27934 ft | 350 kts | 267° |
| 2026-05-04 21:33 | 40.13956 | -111.01383 | 27512 ft | 349 kts | 267° |
| 2026-05-04 21:34 | 40.13911 | -111.04559 | 27087 ft | 348 kts | 267° |
| 2026-05-04 21:34 | 40.13864 | -111.07716 | 26678 ft | 348 kts | 267° |
| 2026-05-04 21:34 | 40.13815 | -111.10873 | 26269 ft | 347 kts | 267° |
| 2026-05-04 21:34 | 40.13762 | -111.14025 | 25860 ft | 346 kts | 267° |
| 2026-05-04 21:35 | 40.13708 | -111.17179 | 25463 ft | 348 kts | 267° |
| 2026-05-04 21:35 | 40.13656 | -111.20338 | 25062 ft | 349 kts | 267° |
| 2026-05-04 21:35 | 40.13602 | -111.23506 | 24590 ft | 349 kts | 266° |
| 2026-05-04 21:35 | 40.13546 | -111.26674 | 24145 ft | 348 kts | 266° |
| 2026-05-04 21:36 | 40.13496 | -111.29837 | 23672 ft | 348 kts | 266° |
| 2026-05-04 21:36 | 40.13444 | -111.33009 | 23183 ft | 349 kts | 266° |
| 2026-05-04 21:36 | 40.13392 | -111.36175 | 22683 ft | 348 kts | 267° |
| 2026-05-04 21:36 | 40.13340 | -111.39330 | 22221 ft | 346 kts | 267° |
| 2026-05-04 21:37 | 40.13286 | -111.42464 | 21738 ft | 345 kts | 266° |
| 2026-05-04 21:37 | 40.13228 | -111.45591 | 21270 ft | 343 kts | 266° |
| 2026-05-04 21:37 | 40.13170 | -111.48702 | 20796 ft | 342 kts | 265° |
| 2026-05-04 21:37 | 40.13122 | -111.51809 | 20314 ft | 342 kts | 269° |
| 2026-05-04 21:38 | 40.13410 | -111.54901 | 19821 ft | 344 kts | 282° |
| 2026-05-04 21:38 | 40.14175 | -111.57868 | 19458 ft | 346 kts | 294° |
| 2026-05-04 21:38 | 40.15234 | -111.60705 | 18976 ft | 347 kts | 294° |
| 2026-05-04 21:38 | 40.16289 | -111.63544 | 18486 ft | 349 kts | 293° |
| 2026-05-04 21:39 | 40.17348 | -111.66402 | 17980 ft | 350 kts | 294° |
| 2026-05-04 21:39 | 40.18418 | -111.69303 | 17478 ft | 349 kts | 293° |
| 2026-05-04 21:39 | 40.19465 | -111.72153 | 17130 ft | 344 kts | 295° |
| 2026-05-04 21:39 | 40.20497 | -111.74964 | 16697 ft | 342 kts | 294° |
| 2026-05-04 21:40 | 40.21525 | -111.77766 | 16248 ft | 341 kts | 294° |
| 2026-05-04 21:40 | 40.22551 | -111.80564 | 15785 ft | 341 kts | 294° |
| 2026-05-04 21:40 | 40.23577 | -111.83361 | 15326 ft | 341 kts | 294° |
| 2026-05-04 21:40 | 40.24605 | -111.86157 | 14858 ft | 341 kts | 294° |
| 2026-05-04 21:41 | 40.25689 | -111.88927 | 14334 ft | 344 kts | 301° |
| 2026-05-04 21:41 | 40.27257 | -111.91301 | 13831 ft | 347 kts | 319° |
| 2026-05-04 21:41 | 40.29299 | -111.92974 | 13283 ft | 348 kts | 338° |
| 2026-05-04 21:41 | 40.31622 | -111.93781 | 12774 ft | 346 kts | 354° |
| 2026-05-04 21:42 | 40.34028 | -111.93791 | 12281 ft | 345 kts | 2° |
| 2026-05-04 21:42 | 40.36420 | -111.93688 | 11778 ft | 344 kts | 1° |
| 2026-05-04 21:42 | 40.38801 | -111.93591 | 11266 ft | 337 kts | 1° |
| 2026-05-04 21:42 | 40.40328 | -111.93532 | 10957 ft | 326 kts | 1° |
| 2026-05-04 21:43 | 40.42538 | -111.93447 | 10510 ft | 310 kts | 0° |
| 2026-05-04 21:43 | 40.44642 | -111.93517 | 10174 ft | 292 kts | 353° |
| 2026-05-04 21:43 | 40.46595 | -111.93756 | 10055 ft | 276 kts | 353° |
| 2026-05-04 21:43 | 40.48498 | -111.93970 | 9773 ft | 273 kts | 353° |
| 2026-05-04 21:44 | 40.50383 | -111.94185 | 9447 ft | 269 kts | 352° |
| 2026-05-04 21:44 | 40.52249 | -111.94399 | 9077 ft | 264 kts | 353° |
| 2026-05-04 21:44 | 40.54066 | -111.94608 | 8729 ft | 259 kts | 352° |
| 2026-05-04 21:44 | 40.55849 | -111.94813 | 8389 ft | 254 kts | 353° |
| 2026-05-04 21:45 | 40.57554 | -111.95009 | 8075 ft | 236 kts | 352° |
| 2026-05-04 21:45 | 40.59116 | -111.95187 | 7775 ft | 215 kts | 352° |
| 2026-05-04 21:45 | 40.60522 | -111.95349 | 7528 ft | 190 kts | 352° |
| 2026-05-04 21:45 | 40.61770 | -111.95492 | 7308 ft | 172 kts | 349° |
| 2026-05-04 21:46 | 40.62934 | -111.95628 | 7130 ft | 165 kts | 351° |
| 2026-05-04 21:46 | 40.64066 | -111.95760 | 6966 ft | 161 kts | 353° |
| 2026-05-04 21:46 | 40.65171 | -111.95889 | 6788 ft | 158 kts | 352° |
| 2026-05-04 21:46 | 40.66257 | -111.96014 | 6588 ft | 156 kts | 353° |
| 2026-05-04 21:47 | 40.67341 | -111.96140 | 6384 ft | 157 kts | 353° |
| 2026-05-04 21:47 | 40.68429 | -111.96266 | 6152 ft | 156 kts | 351° |
| 2026-05-04 21:47 | 40.69510 | -111.96391 | 5920 ft | 157 kts | 353° |
| 2026-05-04 21:47 | 40.70598 | -111.96517 | 5680 ft | 158 kts | 350° |
| 2026-05-04 21:48 | 40.71689 | -111.96644 | 5429 ft | 158 kts | 348° |
| 2026-05-04 21:48 | 40.72781 | -111.96770 | 5217 ft | 158 kts | 351° |
| 2026-05-04 21:48 | 40.73881 | -111.96897 | 4986 ft | 159 kts | 347° |
| 2026-05-04 21:48 | 40.74996 | -111.97025 | 4766 ft | 162 kts | 351° |
| 2026-05-04 21:49 | 40.76122 | -111.97157 | 4538 ft | 162 kts | 354° |
| 2026-05-04 21:49 | 40.77238 | -111.97285 | 4344 ft | 159 kts | 349° |
| 2026-05-04 21:49 | 40.78300 | -111.97417 | 4230 ft | 138 kts | 353° |
| 2026-05-04 21:49 | 40.78957 | -111.97476 | 4232 ft | 52 kts | 355° |
| 2026-05-04 21:50 | 40.79333 | -111.97539 | 4230 ft | 50 kts | 352° |
| 2026-05-04 21:50 | 40.79535 | -111.97652 | 4229 ft | 27 kts | 324° |
| 2026-05-04 21:50 | 40.79659 | -111.97771 | 4230 ft | 17 kts | 312° |
| 2026-05-04 21:50 | 40.79639 | -111.97876 | 4231 ft | 14 kts | 192° |
| 2026-05-04 21:51 | 40.79513 | -111.97866 | 4231 ft | 26 kts | 174° |
| 2026-05-04 21:51 | 40.79290 | -111.97841 | 4231 ft | 34 kts | 172° |
| 2026-05-04 21:51 | 40.79082 | -111.97815 | 4231 ft | 21 kts | 179° |
| 2026-05-04 21:51 | 40.78934 | -111.97800 | 4231 ft | 20 kts | 174° |
| 2026-05-04 21:52 | 40.78825 | -111.97786 | 4231 ft | 15 kts | 174° |
| 2026-05-04 21:52 | 40.78727 | -111.97776 | 4231 ft | 13 kts | 176° |
| 2026-05-04 21:52 | 40.78640 | -111.97767 | 4231 ft | 12 kts | 174° |
| 2026-05-04 21:52 | 40.78552 | -111.97755 | 4231 ft | 13 kts | 174° |
| 2026-05-04 21:53 | 40.78477 | -111.97750 | 4231 ft | 8 kts | 190° |
| 2026-05-04 21:53 | 40.78454 | -111.97800 | 4231 ft | 6 kts | 260° |
| 2026-05-04 21:53 | 40.78449 | -111.97875 | 4231 ft | 9 kts | 265° |
| 2026-05-04 21:53 | 40.78444 | -111.97951 | 4231 ft | 8 kts | 264° |
| 2026-05-04 21:54 | 40.78445 | -111.98016 | 4231 ft | 7 kts | 284° |
| 2026-05-04 21:54 | 40.78467 | -111.98082 | 4230 ft | 9 kts | 296° |
| 2026-05-04 21:54 | 40.78502 | -111.98126 | 4231 ft | 6 kts | 346° |
| 2026-05-04 21:54 | 40.78516 | -111.98128 | 4231 ft | 1 kts | 354° |
| 2026-05-04 21:55 | 40.78520 | -111.98128 | 4231 ft | 0 kts | 354° |
| 2026-05-04 21:55 | 40.78523 | -111.98129 | 4231 ft | 2 kts | 354° |
| 2026-05-04 21:55 | 40.78532 | -111.98130 | 4231 ft | 1 kts | 355° |
| 2026-05-04 21:55 | 40.78533 | -111.98130 | 4231 ft | 0 kts | 354° |
| 2026-05-04 21:56 | 40.78537 | -111.98130 | 4230 ft | 1 kts | 355° |
| 2026-05-04 21:56 | 40.78538 | -111.98131 | 4230 ft | 0 kts | 355° |